N4GD Weather Reports


Display with metric or nautical units.
time (UTC)temp
F
wind
direction
speed
MPH
gust
MPH
rain 1hr
in
rain 24hr
in
rain mn
in
humidity
%
barometer
mb
20191019201728 85 161 11.0 30.0 0.01 3.12 2.39 82 1004.4
20191019200228 84 137 10.0 25.0 0.01 3.12 2.39 83 1004.5
20191019194729 83 211 10.0 21.0 0.01 3.12 2.39 87 1004.5
20191019193228 81 149 8.0 22.0 0.01 3.12 2.39 91 1004.8
20191019191728 83 154 10.0 23.0 0.00 3.12 2.39 85 1005.0
20191019190234 85 207 11.0 27.0 0.00 3.12 2.38 82 1004.9
20191019184726 85 180 10.0 23.0 0.00 3.12 2.38 81 1004.9
20191019183224 85 166 10.0 25.0 0.00 3.12 2.38 82 1005.1
20191019181724 85 202 9.0 23.0 0.00 3.12 2.38 82 1004.9
20191019180224 84 205 11.0 26.0 0.00 3.12 2.38 83 1005.0
20191019174730 83 201 10.0 23.0 0.01 3.12 2.38 83 1005.2
20191019173224 82 182 11.0 31.0 0.02 3.12 2.38 85 1005.4
20191019171724 82 182 10.0 25.0 0.02 3.12 2.38 86 1005.6
20191019170224 81 171 10.0 24.0 0.02 3.12 2.38 88 1005.7
20191019164728 81 180 8.0 19.0 0.02 3.11 2.37 85 1005.7
20191019163224 82 117 9.0 24.0 0.01 3.10 2.36 84 1005.9
20191019161722 80 142 9.0 20.0 0.01 3.10 2.36 90 1005.9
20191019160225 78 197 9.0 22.0 0.01 3.10 2.36 89 1006.1
20191019154723 80 199 10.0 24.0 0.00 3.09 2.35 83 1006.2
20191019153221 81 119 10.0 35.0 0.00 3.09 2.35 81 1006.5
20191019151717 80 182 9.0 22.0 0.01 3.09 2.35 89 1006.3
20191019150218 78 165 8.0 19.0 0.04 3.09 2.35 91 1006.3
20191019144719 78 207 10.0 23.0 0.07 3.09 2.35 91 1006.4
20191019143218 77 154 9.0 21.0 0.11 3.09 2.35 93 1006.5
20191019141716 75 94 8.0 22.0 0.14 3.08 2.34 96 1006.7
20191019140214 75 177 7.0 18.0 0.16 3.05 2.31 97 1007.2
20191019134711 75 172 6.0 14.0 0.18 3.02 2.28 98 1007.2
20191019133210 74 159 4.0 11.0 0.20 2.98 2.24 98 1007.1
20191019131708 74 130 5.0 12.0 0.22 2.94 2.20 98 1006.5
20191019130209 74 142 5.0 14.0 0.23 2.89 2.15 98 1006.7
20191019124706 74 132 6.0 13.0 0.26 2.84 2.10 98 1006.6
20191019123206 74 118 5.0 12.0 0.27 2.78 2.04 98 1006.8
20191019121709 73 144 2.0 7.0 0.29 2.72 1.98 98 1007.0
20191019120208 73 155 3.0 7.0 0.30 2.66 1.92 98 1006.8
20191019114705 73 171 6.0 15.0 0.28 2.58 1.85 98 1006.9
20191019113206 74 150 7.0 14.0 0.28 2.51 1.77 98 1006.6
20191019111705 74 187 3.0 7.0 0.26 2.43 1.70 98 1006.7
20191019110205 73 167 3.0 10.0 0.25 2.36 1.63 98 1006.5
20191019104712 74 192 6.0 12.0 0.24 2.30 1.56 98 1006.6
20191019103206 75 159 5.0 14.0 0.22 2.23 1.49 98 1006.7
20191019101706 76 119 4.0 13.0 0.20 2.17 1.43 98 1005.9
20191019100207 76 112 2.0 8.0 0.18 2.11 1.38 98 1005.6
20191019094707 76 134 4.0 9.0 0.18 2.06 1.32 98 1005.3
20191019093205 75 113 5.0 10.0 0.20 2.01 1.27 98 1005.7
20191019091708 75 114 3.0 8.0 0.24 1.97 1.23 98 1005.9
20191019090202 75 129 2.0 7.0 0.29 1.93 1.19 98 1006.1
20191019084701 75 142 2.0 11.0 0.33 1.88 1.14 98 1005.8
20191019083205 75 101 6.0 12.0 0.38 1.81 1.07 98 1005.5
20191019081702 76 168 6.0 11.0 0.41 1.73 1.00 98 1006.0
20191019080201 76 144 6.0 12.0 0.43 1.64 0.91 98 1006.3
20191019074704 75 102 5.0 12.0 0.45 1.55 0.82 98 1006.2
20191019073204 75 172 3.0 9.0 0.40 1.43 0.70 98 1006.7
20191019071702 75 129 6.0 16.0 0.32 1.32 0.59 98 1006.7
20191019070202 76 169 7.0 12.0 0.24 1.21 0.48 98 1006.3
20191019064659 76 125 3.0 7.0 0.16 1.10 0.37 98 1007.6
20191019063157 76 151 3.0 8.0 0.14 1.03 0.29 98 1007.0
20191019061702 76 118 3.0 9.0 0.15 1.00 0.26 98 1006.3
20191019060154 76 105 5.0 12.0 0.16 0.97 0.23 98 1006.2
20191019054654 76 132 4.0 9.0 0.16 0.94 0.20 98 1007.0
20191019053153 76 128 4.0 9.0 0.13 0.89 0.15 98 1007.2
20191019051654 76 119 5.0 11.0 0.10 0.85 0.12 98 1007.2
20191019050153 76 112 4.0 8.0 0.07 0.81 0.07 98 1007.1
20191019044652 76 107 4.0 10.0 0.05 0.78 0.04 98 1007.4
20191019043151 76 113 4.0 9.0 0.04 0.76 0.02 98 1007.3
20191019041650 76 118 2.0 7.0 0.04 0.75 0.01 98 1008.0
20191019040149 76 99 3.0 8.0 0.03 0.74 0.00 98 1007.9
20191019034647 76 98 3.0 7.0 0.02 0.73 0.73 98 1007.9
20191019033145 76 122 1.0 5.0 0.02 0.72 0.72 98 1008.3
20191019031647 76 108 2.0 7.0 0.02 0.71 0.71 98 1008.5
20191019030146 76 120 2.0 9.0 0.04 0.71 0.71 98 1008.5
20191019024643 76 121 1.0 7.0 0.09 0.71 0.71 97 1008.2
20191019023142 76 76 0.0 4.0 0.19 0.70 0.70 97 1008.5
20191019021643 76 128 1.0 9.0 0.28 0.69 0.69 97 1009.0
20191019020141 75 109 3.0 11.0 0.33 0.67 0.67 98 1008.3
20191019014641 75 203 4.0 11.0 0.32 0.62 0.62 97 1008.7
20191019013141 75 344 3.0 11.0 0.26 0.51 0.51 97 1007.0
20191019011647 75 74 1.0 5.0 0.22 0.41 0.41 97 1008.2
20191019010141 75 17 1.0 6.0 0.21 0.34 0.34 97 1007.5
20191019004641 75 57 1.0 6.0 0.18 0.30 0.31 97 1007.7
20191019003141 74 132 1.0 5.0 0.15 0.25 0.25 97 1007.5
20191019001641 74 55 0.0 4.0 0.10 0.19 0.20 97 1007.9
20191019000147 74 54 1.0 6.0 0.05 0.13 0.13 96 1007.8
20191018234639 74 5 1.0 8.0 0.05 0.12 0.12 96 1007.5
20191018233139 74 40 1.0 6.0 0.05 0.10 0.10 96 1007.9
20191018231637 74 94 0.0 5.0 0.05 0.09 0.10 96 1007.7
20191018230137 74 93 0.0 1.0 0.05 0.08 0.08 95 1008.3
20191018224637 74 92 0.0 2.0 0.04 0.07 0.08 95 1008.5
20191018223137 74 109 0.0 2.0 0.03 0.05 0.05 94 1008.3
20191018221634 74 69 0.0 2.0 0.03 0.04 0.04 94 1008.5
20191018220133 74 96 0.0 2.0 0.02 0.03 0.03 93 1008.4
20191018214633 75 63 0.0 5.0 0.02 0.03 0.03 92 1008.5
20191018213132 75 132 0.0 4.0 0.01 0.02 0.02 91 1008.5
20191018211632 75 124 0.0 6.0 0.00 0.01 0.01 91 1008.7
20191018210132 75 105 0.0 4.0 0.00 0.01 0.01 90 1008.5
20191018204633 75 108 0.0 4.0 0.00 0.01 0.01 91 1008.2
20191018203136 75 109 0.0 2.0 0.01 0.01 0.01 91 1008.7